Hobbema, Canada
Current Conditions -  °F | °C
As of 7:00 AM on Wednesday 26 Nov 2014 (Local Time) from CYEG Reporting Station
Light Snow Light Snow  
Wind Chill:   Ceiling: 1900
Heat Index: 16°   Visibility: 15mi
Dew Point: 12°   Wind: 8mph
Humidity: 86%   Direction: 170°S
Pressure: 30.15"   Gusts: NA
Location:  52.83°N, 113.45°W
Report Text: CYEG 261400Z 17007KT 15SM -SN FEW015 BKN019 OVC080 M09/M11 A3015 RMK SC1SC4AC3 SNW VRY LGT SLP260
Loading
Personal Weather Stations






























Interactive Weather Map New forecast layout! Learn more

10-Day Weather Forecast

Advertisements
Track Severe Weather on mobile